Desoto, Indiana
Current Conditions -  °F | °C
As of 3:53 AM on Friday 31 Oct 2014 (Local Time) from KMIE Reporting Station
Clear Clear  
Wind Chill: 43°   Ceiling: Unl
Heat Index: 43°   Visibility: 10mi
Dew Point: 35°   Wind: 3mph
Humidity: 74%   Direction: 220°SW
Pressure: 30"   Gusts: NA
Location:  40.2763°N, 85.3769°W
Report Text: KMIE 310753Z AUTO 22003KT 10SM CLR 06/02 A3000 RMK AO2 SLP158 T00610017
Loading
Personal Weather Stations






























Interactive Weather Map
Tropical Storm Tracking
New forecast layout! Learn more

10-Day Weather Forecast

Advertisements
Track Severe Weather on mobile